sensor_id;sensor_type;location;lat;lon;timestamp;pressure;altitude;pressure_sealevel;temperature;humidity
6435;BME280;3250;42.694;23.278;2024-02-15T00:01:41;95265.66;;;6.04;66.13
6435;BME280;3250;42.694;23.278;2024-02-15T00:04:07;95261.75;;;6.00;66.25
6435;BME280;3250;42.694;23.278;2024-02-15T00:06:32;95255.38;;;6.02;66.00
6435;BME280;3250;42.694;23.278;2024-02-15T00:08:58;95269.53;;;6.08;66.43
6435;BME280;3250;42.694;23.278;2024-02-15T00:11:23;95270.56;;;5.99;66.37
6435;BME280;3250;42.694;23.278;2024-02-15T00:13:49;95266.31;;;5.98;66.39
6435;BME280;3250;42.694;23.278;2024-02-15T00:16:14;95268.31;;;5.96;66.44
6435;BME280;3250;42.694;23.278;2024-02-15T00:18:40;95266.97;;;6.00;66.50
6435;BME280;3250;42.694;23.278;2024-02-15T00:21:05;95267.09;;;6.06;65.99
6435;BME280;3250;42.694;23.278;2024-02-15T00:23:31;95265.47;;;6.05;66.20
6435;BME280;3250;42.694;23.278;2024-02-15T00:25:57;95268.72;;;6.07;66.64
6435;BME280;3250;42.694;23.278;2024-02-15T00:28:23;95275.63;;;6.23;67.04
6435;BME280;3250;42.694;23.278;2024-02-15T00:30:49;95277.16;;;6.18;65.85
6435;BME280;3250;42.694;23.278;2024-02-15T00:33:15;95283.31;;;6.25;66.31
6435;BME280;3250;42.694;23.278;2024-02-15T00:35:41;95283.69;;;6.22;66.05
6435;BME280;3250;42.694;23.278;2024-02-15T00:38:06;95280.75;;;6.17;65.79
6435;BME280;3250;42.694;23.278;2024-02-15T00:40:32;95282.75;;;6.06;65.68
6435;BME280;3250;42.694;23.278;2024-02-15T00:42:58;95255.75;;;5.91;65.38
6435;BME280;3250;42.694;23.278;2024-02-15T00:45:23;95278.94;;;5.94;66.06
6435;BME280;3250;42.694;23.278;2024-02-15T00:47:49;95282.75;;;6.06;65.96
6435;BME280;3250;42.694;23.278;2024-02-15T00:50:15;95280.94;;;5.76;65.55
6435;BME280;3250;42.694;23.278;2024-02-15T00:52:40;95275.34;;;5.87;66.19
6435;BME280;3250;42.694;23.278;2024-02-15T00:55:06;95277.31;;;5.85;66.34
6435;BME280;3250;42.694;23.278;2024-02-15T00:57:31;95275.69;;;5.84;66.52
6435;BME280;3250;42.694;23.278;2024-02-15T00:59:57;95248.25;;;5.80;66.57
6435;BME280;3250;42.694;23.278;2024-02-15T01:02:22;95260.97;;;5.91;66.44
6435;BME280;3250;42.694;23.278;2024-02-15T01:04:49;95278.34;;;6.07;66.20
6435;BME280;3250;42.694;23.278;2024-02-15T01:07:15;95278.13;;;6.17;65.57
6435;BME280;3250;42.694;23.278;2024-02-15T01:09:41;95265.13;;;5.78;66.25
6435;BME280;3250;42.694;23.278;2024-02-15T01:12:06;95285.66;;;5.81;66.39
6435;BME280;3250;42.694;23.278;2024-02-15T01:14:32;95275.00;;;5.59;66.28
6435;BME280;3250;42.694;23.278;2024-02-15T01:16:58;95282.75;;;5.76;66.66
6435;BME280;3250;42.694;23.278;2024-02-15T01:19:23;95277.78;;;5.89;66.14
6435;BME280;3250;42.694;23.278;2024-02-15T01:21:49;95261.47;;;5.95;66.00
6435;BME280;3250;42.694;23.278;2024-02-15T01:24:14;95275.75;;;6.07;65.70
6435;BME280;3250;42.694;23.278;2024-02-15T01:26:40;95276.44;;;6.01;65.84
6435;BME280;3250;42.694;23.278;2024-02-15T01:29:05;95277.94;;;5.95;65.75
6435;BME280;3250;42.694;23.278;2024-02-15T01:31:31;95272.91;;;5.86;66.26
6435;BME280;3250;42.694;23.278;2024-02-15T01:33:56;95280.56;;;5.95;66.16
6435;BME280;3250;42.694;23.278;2024-02-15T01:36:22;95277.41;;;6.00;65.95
6435;BME280;3250;42.694;23.278;2024-02-15T01:38:47;95275.50;;;5.94;66.13
6435;BME280;3250;42.694;23.278;2024-02-15T01:41:13;95270.28;;;5.86;66.15
6435;BME280;3250;42.694;23.278;2024-02-15T01:43:43;95270.44;;;5.92;66.64
6435;BME280;3250;42.694;23.278;2024-02-15T01:46:09;95248.47;;;5.79;66.24
6435;BME280;3250;42.694;23.278;2024-02-15T01:48:39;95275.84;;;5.91;65.72
6435;BME280;3250;42.694;23.278;2024-02-15T01:51:07;95267.56;;;5.79;66.24
6435;BME280;3250;42.694;23.278;2024-02-15T01:53:33;95276.19;;;5.88;66.82
6435;BME280;3250;42.694;23.278;2024-02-15T01:55:59;95259.56;;;5.73;66.51
6435;BME280;3250;42.694;23.278;2024-02-15T01:58:25;95282.69;;;5.92;66.37
6435;BME280;3250;42.694;23.278;2024-02-15T02:00:53;95280.25;;;5.90;66.42
6435;BME280;3250;42.694;23.278;2024-02-15T02:03:21;95279.44;;;5.90;66.17
6435;BME280;3250;42.694;23.278;2024-02-15T02:05:46;95278.81;;;5.88;66.37
6435;BME280;3250;42.694;23.278;2024-02-15T02:08:12;95277.47;;;5.92;66.11
6435;BME280;3250;42.694;23.278;2024-02-15T02:10:38;95278.28;;;5.92;66.17
6435;BME280;3250;42.694;23.278;2024-02-15T02:13:05;95285.59;;;5.97;66.19
6435;BME280;3250;42.694;23.278;2024-02-15T02:15:33;95286.41;;;5.97;65.70
6435;BME280;3250;42.694;23.278;2024-02-15T02:18:00;95280.75;;;5.86;65.93
6435;BME280;3250;42.694;23.278;2024-02-15T02:20:26;95289.91;;;5.82;65.89
6435;BME280;3250;42.694;23.278;2024-02-15T02:22:53;95288.84;;;5.60;66.40
6435;BME280;3250;42.694;23.278;2024-02-15T02:25:22;95288.84;;;5.60;66.68
6435;BME280;3250;42.694;23.278;2024-02-15T02:27:51;95288.22;;;5.58;67.26
6435;BME280;3250;42.694;23.278;2024-02-15T02:30:17;95289.03;;;5.58;67.24
6435;BME280;3250;42.694;23.278;2024-02-15T02:32:45;95290.47;;;5.69;66.83
6435;BME280;3250;42.694;23.278;2024-02-15T02:35:11;95292.91;;;5.71;66.72
6435;BME280;3250;42.694;23.278;2024-02-15T02:37:39;95295.69;;;5.69;66.63
6435;BME280;3250;42.694;23.278;2024-02-15T02:40:06;95296.94;;;5.73;66.83
6435;BME280;3250;42.694;23.278;2024-02-15T02:42:54;95292.25;;;5.68;66.61
6435;BME280;3250;42.694;23.278;2024-02-15T02:45:24;95277.63;;;5.51;67.11
6435;BME280;3250;42.694;23.278;2024-02-15T02:47:50;95294.56;;;5.55;67.20
6435;BME280;3250;42.694;23.278;2024-02-15T02:50:17;95304.00;;;5.64;66.77
6435;BME280;3250;42.694;23.278;2024-02-15T02:52:43;95283.19;;;5.48;67.31
6435;BME280;3250;42.694;23.278;2024-02-15T02:55:09;95274.69;;;5.46;67.15
6435;BME280;3250;42.694;23.278;2024-02-15T02:57:36;95276.81;;;5.51;66.88
6435;BME280;3250;42.694;23.278;2024-02-15T03:00:06;95303.72;;;5.59;67.31
6435;BME280;3250;42.694;23.278;2024-02-15T03:02:38;95306.00;;;5.54;67.30
6435;BME280;3250;42.694;23.278;2024-02-15T03:05:04;95299.19;;;5.53;67.53
6435;BME280;3250;42.694;23.278;2024-02-15T03:07:38;95304.38;;;5.61;67.34
6435;BME280;3250;42.694;23.278;2024-02-15T03:10:06;95305.84;;;5.56;67.27
6435;BME280;3250;42.694;23.278;2024-02-15T03:12:39;95299.50;;;5.50;67.53
6435;BME280;3250;42.694;23.278;2024-02-15T03:15:06;95302.09;;;5.58;67.56
6435;BME280;3250;42.694;23.278;2024-02-15T03:17:44;95283.81;;;5.58;66.98
6435;BME280;3250;42.694;23.278;2024-02-15T03:20:11;95308.94;;;5.59;67.13
6435;BME280;3250;42.694;23.278;2024-02-15T03:22:38;95310.59;;;5.52;67.21
6435;BME280;3250;42.694;23.278;2024-02-15T03:25:05;95319.38;;;5.59;67.00
6435;BME280;3250;42.694;23.278;2024-02-15T03:27:33;95311.53;;;5.59;67.12
6435;BME280;3250;42.694;23.278;2024-02-15T03:30:01;95322.00;;;5.59;67.20
6435;BME280;3250;42.694;23.278;2024-02-15T03:32:26;95321.09;;;5.36;67.52
6435;BME280;3250;42.694;23.278;2024-02-15T03:34:52;95321.72;;;5.38;67.42
6435;BME280;3250;42.694;23.278;2024-02-15T03:37:19;95301.84;;;5.21;67.83
6435;BME280;3250;42.694;23.278;2024-02-15T03:39:46;95316.53;;;5.22;68.28
6435;BME280;3250;42.694;23.278;2024-02-15T03:42:11;95306.28;;;5.04;69.00
6435;BME280;3250;42.694;23.278;2024-02-15T03:44:36;95309.69;;;5.21;68.66
6435;BME280;3250;42.694;23.278;2024-02-15T03:47:04;95316.22;;;5.25;68.51
6435;BME280;3250;42.694;23.278;2024-02-15T03:49:30;95303.00;;;5.26;68.14
6435;BME280;3250;42.694;23.278;2024-02-15T03:51:57;95319.72;;;5.48;67.77
6435;BME280;3250;42.694;23.278;2024-02-15T03:54:25;95323.66;;;5.52;67.46
6435;BME280;3250;42.694;23.278;2024-02-15T03:56:51;95317.81;;;5.42;67.67
6435;BME280;3250;42.694;23.278;2024-02-15T03:59:21;95314.84;;;5.37;67.62
6435;BME280;3250;42.694;23.278;2024-02-15T04:01:54;95321.38;;;5.41;67.44
6435;BME280;3250;42.694;23.278;2024-02-15T04:04:21;95319.59;;;5.42;67.30
6435;BME280;3250;42.694;23.278;2024-02-15T04:06:50;95319.75;;;5.40;67.03
6435;BME280;3250;42.694;23.278;2024-02-15T04:09:16;95319.91;;;5.39;67.11
6435;BME280;3250;42.694;23.278;2024-02-15T04:11:48;95322.38;;;5.32;67.45
6435;BME280;3250;42.694;23.278;2024-02-15T04:14:18;95324.69;;;5.27;67.67
6435;BME280;3250;42.694;23.278;2024-02-15T04:16:44;95300.41;;;5.18;68.06
6435;BME280;3250;42.694;23.278;2024-02-15T04:19:12;95326.59;;;5.41;67.65
6435;BME280;3250;42.694;23.278;2024-02-15T04:21:38;95328.41;;;5.41;67.67
6435;BME280;3250;42.694;23.278;2024-02-15T04:24:05;95326.28;;;5.44;67.54
6435;BME280;3250;42.694;23.278;2024-02-15T04:26:31;95321.53;;;5.48;67.54
6435;BME280;3250;42.694;23.278;2024-02-15T04:28:58;95314.53;;;5.40;67.22
6435;BME280;3250;42.694;23.278;2024-02-15T04:31:24;95323.34;;;5.39;68.18
6435;BME280;3250;42.694;23.278;2024-02-15T04:33:53;95330.19;;;5.40;67.39
6435;BME280;3250;42.694;23.278;2024-02-15T04:36:18;95324.00;;;5.41;67.48
6435;BME280;3250;42.694;23.278;2024-02-15T04:38:51;95312.97;;;5.15;67.66
6435;BME280;3250;42.694;23.278;2024-02-15T04:41:18;95333.94;;;5.38;67.81
6435;BME280;3250;42.694;23.278;2024-02-15T04:43:51;95311.81;;;5.25;67.42
6435;BME280;3250;42.694;23.278;2024-02-15T04:46:20;95317.50;;;5.29;67.38
6435;BME280;3250;42.694;23.278;2024-02-15T04:48:48;95311.81;;;5.25;67.31
6435;BME280;3250;42.694;23.278;2024-02-15T04:51:17;95345.53;;;5.43;67.15
6435;BME280;3250;42.694;23.278;2024-02-15T04:53:45;95348.78;;;5.37;67.43
6435;BME280;3250;42.694;23.278;2024-02-15T04:56:12;95346.19;;;5.37;67.61
6435;BME280;3250;42.694;23.278;2024-02-15T04:58:41;95347.34;;;5.43;67.58
6435;BME280;3250;42.694;23.278;2024-02-15T05:01:14;95359.22;;;5.45;67.56
6435;BME280;3250;42.694;23.278;2024-02-15T05:03:43;95356.13;;;5.42;67.69
6435;BME280;3250;42.694;23.278;2024-02-15T05:06:09;95363.00;;;5.43;67.72
6435;BME280;3250;42.694;23.278;2024-02-15T05:08:36;95353.69;;;5.40;68.05
6435;BME280;3250;42.694;23.278;2024-02-15T05:11:11;95367.72;;;5.39;67.75
6435;BME280;3250;42.694;23.278;2024-02-15T05:13:45;95361.88;;;5.21;68.00
6435;BME280;3250;42.694;23.278;2024-02-15T05:16:11;95368.25;;;5.26;68.14
6435;BME280;3250;42.694;23.278;2024-02-15T05:18:37;95364.16;;;5.24;68.33
6435;BME280;3250;42.694;23.278;2024-02-15T05:21:05;95360.09;;;5.21;69.02
6435;BME280;3250;42.694;23.278;2024-02-15T05:23:35;95369.88;;;5.19;68.74
6435;BME280;3250;42.694;23.278;2024-02-15T05:26:00;95373.47;;;5.18;69.13
6435;BME280;3250;42.694;23.278;2024-02-15T05:28:26;95374.59;;;5.24;68.71
6435;BME280;3250;42.694;23.278;2024-02-15T05:31:14;95379.50;;;5.11;68.59
6435;BME280;3250;42.694;23.278;2024-02-15T05:33:43;95369.06;;;4.94;69.43
6435;BME280;3250;42.694;23.278;2024-02-15T05:36:16;95374.13;;;5.12;69.43
6435;BME280;3250;42.694;23.278;2024-02-15T05:38:47;95382.28;;;5.17;69.09
6435;BME280;3250;42.694;23.278;2024-02-15T05:41:13;95383.09;;;5.18;69.08
6435;BME280;3250;42.694;23.278;2024-02-15T05:43:39;95386.34;;;5.20;68.84
6435;BME280;3250;42.694;23.278;2024-02-15T05:46:07;95382.13;;;5.19;68.96
6435;BME280;3250;42.694;23.278;2024-02-15T05:48:33;95390.41;;;5.22;68.64
6435;BME280;3250;42.694;23.278;2024-02-15T05:51:01;95382.59;;;5.22;68.14
6435;BME280;3250;42.694;23.278;2024-02-15T05:53:26;95401.69;;;5.23;68.19
6435;BME280;3250;42.694;23.278;2024-02-15T05:55:52;95395.63;;;5.22;68.37
6435;BME280;3250;42.694;23.278;2024-02-15T05:58:18;95382.28;;;5.17;68.62
6435;BME280;3250;42.694;23.278;2024-02-15T06:00:43;95377.06;;;5.17;68.20
6435;BME280;3250;42.694;23.278;2024-02-15T06:03:16;95400.38;;;5.35;68.18
6435;BME280;3250;42.694;23.278;2024-02-15T06:05:42;95398.09;;;5.32;68.41
6435;BME280;3250;42.694;23.278;2024-02-15T06:08:09;95397.25;;;5.31;68.39
6435;BME280;3250;42.694;23.278;2024-02-15T06:10:34;95387.31;;;5.11;68.65
6435;BME280;3250;42.694;23.278;2024-02-15T06:13:00;95408.38;;;5.25;68.06
6435;BME280;3250;42.694;23.278;2024-02-15T06:15:25;95413.06;;;5.38;68.23
6435;BME280;3250;42.694;23.278;2024-02-15T06:17:52;95409.00;;;5.52;67.52
6435;BME280;3250;42.694;23.278;2024-02-15T06:20:18;95413.72;;;5.48;67.70
6435;BME280;3250;42.694;23.278;2024-02-15T06:22:45;95398.88;;;5.41;67.85
6435;BME280;3250;42.694;23.278;2024-02-15T06:25:12;95417.97;;;5.41;67.82
6435;BME280;3250;42.694;23.278;2024-02-15T06:27:38;95408.50;;;5.40;67.74
6435;BME280;3250;42.694;23.278;2024-02-15T06:30:09;95422.69;;;5.62;67.56
6435;BME280;3250;42.694;23.278;2024-02-15T06:32:53;95428.22;;;5.67;67.23
6435;BME280;3250;42.694;23.278;2024-02-15T06:35:37;95427.53;;;5.81;66.91
6435;BME280;3250;42.694;23.278;2024-02-15T06:38:23;95422.84;;;5.68;67.63
6435;BME280;3250;42.694;23.278;2024-02-15T06:41:07;95428.84;;;5.77;67.49
6435;BME280;3250;42.694;23.278;2024-02-15T06:43:33;95436.50;;;5.87;67.01
6435;BME280;3250;42.694;23.278;2024-02-15T06:46:00;95435.00;;;6.09;66.81
6435;BME280;3250;42.694;23.278;2024-02-15T06:48:26;95442.16;;;6.06;65.85
6435;BME280;3250;42.694;23.278;2024-02-15T06:50:52;95422.06;;;6.15;65.51
6435;BME280;3250;42.694;23.278;2024-02-15T06:53:17;95439.75;;;6.44;65.62
6435;BME280;3250;42.694;23.278;2024-02-15T06:55:48;95446.25;;;6.79;64.78
6435;BME280;3250;42.694;23.278;2024-02-15T06:58:17;95453.50;;;7.23;63.47
6435;BME280;3250;42.694;23.278;2024-02-15T07:00:43;95443.56;;;7.55;62.38
6435;BME280;3250;42.694;23.278;2024-02-15T07:03:09;95435.19;;;7.75;61.99
6435;BME280;3250;42.694;23.278;2024-02-15T07:05:36;95433.97;;;8.44;60.39
6435;BME280;3250;42.694;23.278;2024-02-15T07:08:04;95447.38;;;9.49;57.24
6435;BME280;3250;42.694;23.278;2024-02-15T07:10:30;95437.53;;;11.09;53.44
6435;BME280;3250;42.694;23.278;2024-02-15T07:12:57;95414.91;;;13.15;47.72
6435;BME280;3250;42.694;23.278;2024-02-15T07:15:23;95417.97;;;15.21;42.68
6435;BME280;3250;42.694;23.278;2024-02-15T07:17:48;95422.75;;;16.77;38.76
6435;BME280;3250;42.694;23.278;2024-02-15T07:20:14;95417.78;;;17.99;35.41
6435;BME280;3250;42.694;23.278;2024-02-15T07:22:45;95418.75;;;19.09;31.80
6435;BME280;3250;42.694;23.278;2024-02-15T07:25:11;95421.03;;;19.22;30.27
6435;BME280;3250;42.694;23.278;2024-02-15T07:27:37;95383.25;;;19.35;29.88
6435;BME280;3250;42.694;23.278;2024-02-15T07:30:02;95412.31;;;19.85;29.53
6435;BME280;3250;42.694;23.278;2024-02-15T07:32:31;95403.06;;;19.66;28.26
6435;BME280;3250;42.694;23.278;2024-02-15T07:34:57;95410.88;;;20.05;28.52
6435;BME280;3250;42.694;23.278;2024-02-15T07:37:23;95412.22;;;20.07;27.81
6435;BME280;3250;42.694;23.278;2024-02-15T07:39:52;95396.81;;;20.61;27.53
6435;BME280;3250;42.694;23.278;2024-02-15T07:42:17;95400.34;;;21.34;26.01
6435;BME280;3250;42.694;23.278;2024-02-15T07:44:43;95401.72;;;21.57;25.68
6435;BME280;3250;42.694;23.278;2024-02-15T07:47:08;95400.88;;;21.41;25.67
6435;BME280;3250;42.694;23.278;2024-02-15T07:49:36;95403.31;;;21.48;25.93
6435;BME280;3250;42.694;23.278;2024-02-15T07:52:02;95391.91;;;21.00;26.62
6435;BME280;3250;42.694;23.278;2024-02-15T07:54:32;95405.66;;;20.62;26.63
6435;BME280;3250;42.694;23.278;2024-02-15T07:56:58;95406.47;;;20.25;27.68
6435;BME280;3250;42.694;23.278;2024-02-15T07:59:24;95401.19;;;19.98;27.43
6435;BME280;3250;42.694;23.278;2024-02-15T08:01:50;95401.41;;;19.60;27.74
6435;BME280;3250;42.694;23.278;2024-02-15T08:04:16;95398.50;;;19.40;28.74
6435;BME280;3250;42.694;23.278;2024-02-15T08:06:46;95394.03;;;18.53;29.53
6435;BME280;3250;42.694;23.278;2024-02-15T08:09:15;95394.94;;;18.80;30.08
6435;BME280;3250;42.694;23.278;2024-02-15T08:11:43;95387.25;;;18.07;30.51
6435;BME280;3250;42.694;23.278;2024-02-15T08:14:09;95386.50;;;17.45;31.42
6435;BME280;3250;42.694;23.278;2024-02-15T08:16:36;95389.97;;;17.45;31.27
6435;BME280;3250;42.694;23.278;2024-02-15T08:19:03;95369.88;;;16.81;32.47
6435;BME280;3250;42.694;23.278;2024-02-15T08:21:31;95388.28;;;16.82;32.93
6435;BME280;3250;42.694;23.278;2024-02-15T08:24:04;95379.78;;;16.45;33.85
6435;BME280;3250;42.694;23.278;2024-02-15T08:26:36;95382.69;;;16.20;34.65
6435;BME280;3250;42.694;23.278;2024-02-15T08:29:03;95380.25;;;16.42;33.92
6435;BME280;3250;42.694;23.278;2024-02-15T08:31:29;95380.28;;;16.19;33.73
6435;BME280;3250;42.694;23.278;2024-02-15T08:33:59;95385.47;;;16.14;34.47
6435;BME280;3250;42.694;23.278;2024-02-15T08:36:25;95367.44;;;16.28;34.31
6435;BME280;3250;42.694;23.278;2024-02-15T08:38:51;95358.47;;;16.05;34.18
6435;BME280;3250;42.694;23.278;2024-02-15T08:41:17;95375.91;;;15.78;34.79
6435;BME280;3250;42.694;23.278;2024-02-15T08:43:47;95384.69;;;15.48;34.88
6435;BME280;3250;42.694;23.278;2024-02-15T08:46:15;95374.97;;;15.19;36.18
6435;BME280;3250;42.694;23.278;2024-02-15T08:48:40;95374.97;;;15.31;36.27
6435;BME280;3250;42.694;23.278;2024-02-15T08:51:06;95357.34;;;15.36;36.25
6435;BME280;3250;42.694;23.278;2024-02-15T08:53:34;95378.03;;;15.46;35.71
6435;BME280;3250;42.694;23.278;2024-02-15T08:56:02;95374.97;;;15.31;36.10
6435;BME280;3250;42.694;23.278;2024-02-15T08:58:28;95358.16;;;15.37;35.67
6435;BME280;3250;42.694;23.278;2024-02-15T09:00:55;95381.91;;;15.32;36.50
6435;BME280;3250;42.694;23.278;2024-02-15T09:03:21;95370.16;;;15.39;37.13
6435;BME280;3250;42.694;23.278;2024-02-15T09:05:47;95359.16;;;15.54;35.66
6435;BME280;3250;42.694;23.278;2024-02-15T09:08:13;95358.34;;;15.65;35.10
6435;BME280;3250;42.694;23.278;2024-02-15T09:10:39;95360.78;;;15.25;35.78
6435;BME280;3250;42.694;23.278;2024-02-15T09:13:04;95358.28;;;15.30;36.60
6435;BME280;3250;42.694;23.278;2024-02-15T09:15:32;95370.75;;;15.53;35.96
6435;BME280;3250;42.694;23.278;2024-02-15T09:17:57;95348.28;;;15.14;35.75
6435;BME280;3250;42.694;23.278;2024-02-15T09:20:23;95368.34;;;15.10;36.87
6435;BME280;3250;42.694;23.278;2024-02-15T09:22:54;95351.47;;;14.93;37.22
6435;BME280;3250;42.694;23.278;2024-02-15T09:25:20;95359.84;;;14.90;37.78
6435;BME280;3250;42.694;23.278;2024-02-15T09:27:48;95352.22;;;15.12;36.32
6435;BME280;3250;42.694;23.278;2024-02-15T09:30:14;95359.31;;;15.29;36.79
6435;BME280;3250;42.694;23.278;2024-02-15T09:32:41;95357.59;;;15.46;35.87
6435;BME280;3250;42.694;23.278;2024-02-15T09:35:07;95335.06;;;15.26;35.32
6435;BME280;3250;42.694;23.278;2024-02-15T09:37:37;95357.03;;;15.03;36.45
6435;BME280;3250;42.694;23.278;2024-02-15T09:40:10;95347.22;;;14.73;36.04
6435;BME280;3250;42.694;23.278;2024-02-15T09:42:36;95348.72;;;14.69;36.62
6435;BME280;3250;42.694;23.278;2024-02-15T09:45:04;95334.22;;;14.54;36.51
6435;BME280;3250;42.694;23.278;2024-02-15T09:47:35;95349.13;;;14.85;37.07
6435;BME280;3250;42.694;23.278;2024-02-15T09:50:07;95325.63;;;14.58;36.35
6435;BME280;3250;42.694;23.278;2024-02-15T09:52:33;95344.78;;;14.60;37.53
6435;BME280;3250;42.694;23.278;2024-02-15T09:55:02;95314.09;;;14.53;37.00
6435;BME280;3250;42.694;23.278;2024-02-15T09:57:29;95335.81;;;14.73;37.09
6435;BME280;3250;42.694;23.278;2024-02-15T09:59:57;95320.34;;;14.40;36.65
6435;BME280;3250;42.694;23.278;2024-02-15T10:02:24;95315.63;;;14.24;37.49
6435;BME280;3250;42.694;23.278;2024-02-15T10:04:52;95334.47;;;14.34;38.06
6435;BME280;3250;42.694;23.278;2024-02-15T10:07:18;95322.94;;;13.92;37.27
6435;BME280;3250;42.694;23.278;2024-02-15T10:09:44;95331.25;;;13.71;38.17
6435;BME280;3250;42.694;23.278;2024-02-15T10:12:10;95307.09;;;13.42;39.78
6435;BME280;3250;42.694;23.278;2024-02-15T10:14:35;95325.59;;;13.67;39.00
6435;BME280;3250;42.694;23.278;2024-02-15T10:17:08;95316.59;;;13.75;39.50
6435;BME280;3250;42.694;23.278;2024-02-15T10:19:35;95319.06;;;13.70;39.38
6435;BME280;3250;42.694;23.278;2024-02-15T10:22:08;95296.19;;;13.75;39.01
6435;BME280;3250;42.694;23.278;2024-02-15T10:24:33;95301.72;;;13.55;39.96
6435;BME280;3250;42.694;23.278;2024-02-15T10:27:01;95305.59;;;13.53;39.43
6435;BME280;3250;42.694;23.278;2024-02-15T10:29:36;95277.44;;;13.40;39.26
6435;BME280;3250;42.694;23.278;2024-02-15T10:32:03;95295.44;;;13.25;40.65
6435;BME280;3250;42.694;23.278;2024-02-15T10:34:29;95292.72;;;13.13;41.31
6435;BME280;3250;42.694;23.278;2024-02-15T10:37:13;95288.28;;;13.01;41.01
6435;BME280;3250;42.694;23.278;2024-02-15T10:39:39;95290.59;;;12.91;40.80
6435;BME280;3250;42.694;23.278;2024-02-15T10:42:08;95285.03;;;12.74;40.85
6435;BME280;3250;42.694;23.278;2024-02-15T10:44:39;95280.66;;;12.55;42.58
6435;BME280;3250;42.694;23.278;2024-02-15T10:47:06;95275.84;;;12.52;41.12
6435;BME280;3250;42.694;23.278;2024-02-15T10:49:34;95270.81;;;12.43;41.93
6435;BME280;3250;42.694;23.278;2024-02-15T10:52:00;95273.19;;;12.52;41.43
6435;BME280;3250;42.694;23.278;2024-02-15T10:57:10;95274.41;;;12.49;42.21
6435;BME280;3250;42.694;23.278;2024-02-15T11:00:03;95278.31;;;12.40;41.44
6435;BME280;3250;42.694;23.278;2024-02-15T11:02:46;95267.84;;;12.27;41.82
6435;BME280;3250;42.694;23.278;2024-02-15T11:05:15;95269.69;;;12.20;43.23
6435;BME280;3250;42.694;23.278;2024-02-15T11:07:46;95263.81;;;12.18;42.11
6435;BME280;3250;42.694;23.278;2024-02-15T11:10:13;95262.78;;;12.25;41.64
6435;BME280;3250;42.694;23.278;2024-02-15T11:12:42;95260.75;;;12.21;42.03
6435;BME280;3250;42.694;23.278;2024-02-15T11:15:09;95252.88;;;12.14;41.71
6435;BME280;3250;42.694;23.278;2024-02-15T11:20:08;95240.44;;;12.21;42.73
6435;BME280;3250;42.694;23.278;2024-02-15T11:22:37;95245.34;;;12.18;43.18
6435;BME280;3250;42.694;23.278;2024-02-15T11:25:04;95249.47;;;12.07;43.17
6435;BME280;3250;42.694;23.278;2024-02-15T11:27:38;95249.88;;;12.04;43.73
6435;BME280;3250;42.694;23.278;2024-02-15T11:30:06;95257.56;;;12.05;43.12
6435;BME280;3250;42.694;23.278;2024-02-15T11:32:45;95244.59;;;12.11;41.99
6435;BME280;3250;42.694;23.278;2024-02-15T11:35:21;95246.34;;;12.23;42.67
6435;BME280;3250;42.694;23.278;2024-02-15T11:40:22;95251.19;;;12.26;42.88
6435;BME280;3250;42.694;23.278;2024-02-15T11:42:54;95243.31;;;12.13;43.03
6435;BME280;3250;42.694;23.278;2024-02-15T11:45:20;95243.19;;;12.01;43.99
6435;BME280;3250;42.694;23.278;2024-02-15T11:47:50;95235.22;;;12.15;44.08
6435;BME280;3250;42.694;23.278;2024-02-15T11:50:18;95235.38;;;11.75;44.54
6435;BME280;3250;42.694;23.278;2024-02-15T11:52:50;95211.78;;;11.87;45.32
6435;BME280;3250;42.694;23.278;2024-02-15T11:55:22;95230.81;;;12.02;44.57
6435;BME280;3250;42.694;23.278;2024-02-15T11:58:16;95223.63;;;12.16;44.96
6435;BME280;3250;42.694;23.278;2024-02-15T12:00:47;95240.09;;;12.11;43.77
6435;BME280;3250;42.694;23.278;2024-02-15T12:03:31;95234.97;;;12.23;44.09
6435;BME280;3250;42.694;23.278;2024-02-15T12:06:18;95237.94;;;12.33;44.37
6435;BME280;3250;42.694;23.278;2024-02-15T12:09:02;95215.56;;;12.04;43.79
6435;BME280;3250;42.694;23.278;2024-02-15T12:11:46;95207.72;;;11.91;44.59
6435;BME280;3250;42.694;23.278;2024-02-15T12:14:41;95218.16;;;12.17;44.11
6435;BME280;3250;42.694;23.278;2024-02-15T12:17:25;95221.16;;;12.27;44.39
6435;BME280;3250;42.694;23.278;2024-02-15T12:20:09;95221.47;;;12.37;44.28
6435;BME280;3250;42.694;23.278;2024-02-15T12:22:43;95224.34;;;12.36;43.95
6435;BME280;3250;42.694;23.278;2024-02-15T12:25:14;95223.69;;;12.40;43.54
6435;BME280;3250;42.694;23.278;2024-02-15T12:27:44;95222.47;;;12.43;43.36
6435;BME280;3250;42.694;23.278;2024-02-15T12:30:16;95218.41;;;12.40;42.85
6435;BME280;3250;42.694;23.278;2024-02-15T12:32:46;95220.50;;;12.32;43.41
6435;BME280;3250;42.694;23.278;2024-02-15T12:35:14;95213.72;;;12.42;43.38
6435;BME280;3250;42.694;23.278;2024-02-15T12:40:37;95213.94;;;12.41;43.40
6435;BME280;3250;42.694;23.278;2024-02-15T12:43:06;95204.75;;;12.12;45.03
6435;BME280;3250;42.694;23.278;2024-02-15T12:45:36;95171.97;;;12.01;44.67
6435;BME280;3250;42.694;23.278;2024-02-15T12:48:09;95206.81;;;12.10;44.52
6435;BME280;3250;42.694;23.278;2024-02-15T12:50:35;95185.56;;;11.98;44.21
6435;BME280;3250;42.694;23.278;2024-02-15T12:53:02;95197.44;;;12.14;44.97
6435;BME280;3250;42.694;23.278;2024-02-15T12:55:31;95191.88;;;12.29;45.45
6435;BME280;3250;42.694;23.278;2024-02-15T12:58:00;95187.75;;;12.08;44.17
6435;BME280;3250;42.694;23.278;2024-02-15T13:00:29;95190.44;;;11.37;45.76
6435;BME280;3250;42.694;23.278;2024-02-15T13:02:58;95186.38;;;11.41;46.62
6435;BME280;3250;42.694;23.278;2024-02-15T13:05:25;95191.13;;;11.70;46.72
6435;BME280;3250;42.694;23.278;2024-02-15T13:07:53;95187.81;;;11.95;45.92
6435;BME280;3250;42.694;23.278;2024-02-15T13:10:23;95171.41;;;11.93;45.52
6435;BME280;3250;42.694;23.278;2024-02-15T13:12:52;95192.16;;;12.14;44.85
6435;BME280;3250;42.694;23.278;2024-02-15T13:15:18;95187.25;;;12.24;44.66
6435;BME280;3250;42.694;23.278;2024-02-15T13:17:46;95191.59;;;12.43;45.14
6435;BME280;3250;42.694;23.278;2024-02-15T13:20:12;95175.31;;;12.46;44.00
6435;BME280;3250;42.694;23.278;2024-02-15T13:22:40;95191.94;;;12.78;43.92
6435;BME280;3250;42.694;23.278;2024-02-15T13:25:06;95190.72;;;12.99;43.40
6435;BME280;3250;42.694;23.278;2024-02-15T13:27:36;95190.22;;;13.09;42.45
6435;BME280;3250;42.694;23.278;2024-02-15T13:30:05;95189.28;;;13.03;42.14
6435;BME280;3250;42.694;23.278;2024-02-15T13:32:38;95191.88;;;12.85;42.26
6435;BME280;3250;42.694;23.278;2024-02-15T13:35:05;95190.38;;;12.96;42.22